createdAt,value
2018-09-04T00:00:39.890Z,11.93
2018-09-04T00:03:07.994Z,13.00
2018-09-04T00:05:36.103Z,12.10
2018-09-04T00:08:04.206Z,13.20
2018-09-04T00:10:32.293Z,12.20
2018-09-04T00:13:00.396Z,12.47
2018-09-04T00:15:28.494Z,12.83
2018-09-04T00:17:56.606Z,13.33
2018-09-04T00:20:24.700Z,12.00
2018-09-04T00:22:52.818Z,11.83
2018-09-04T00:25:20.926Z,13.07
2018-09-04T00:27:49.035Z,13.10
2018-09-04T00:30:17.118Z,11.57
2018-09-04T00:32:45.217Z,11.67
2018-09-04T00:35:13.328Z,11.50
2018-09-04T00:37:41.435Z,12.83
2018-09-04T00:40:09.539Z,12.27
2018-09-04T00:42:37.635Z,13.43
2018-09-04T00:45:05.742Z,14.27
2018-09-04T00:47:33.830Z,13.30
2018-09-04T00:50:01.935Z,13.30
2018-09-04T00:52:30.048Z,14.90
2018-09-04T00:54:58.178Z,12.90
2018-09-04T00:57:26.279Z,13.23
2018-09-04T00:59:54.378Z,13.83
2018-09-04T01:02:22.472Z,13.37
2018-09-04T01:04:50.575Z,14.53
2018-09-04T01:07:19.162Z,15.60
2018-09-04T01:09:47.265Z,12.60
2018-09-04T01:12:15.361Z,13.97
2018-09-04T01:14:43.495Z,13.30
2018-09-04T01:17:11.587Z,15.00
2018-09-04T01:19:39.684Z,13.50
2018-09-04T01:22:07.782Z,13.50
2018-09-04T01:24:35.890Z,14.40
2018-09-04T01:27:03.982Z,13.63
2018-09-04T01:29:32.078Z,15.53
2018-09-04T01:32:00.178Z,16.27
2018-09-04T01:34:28.280Z,15.50
2018-09-04T01:36:56.390Z,13.90
2018-09-04T01:39:24.482Z,14.50
2018-09-04T01:41:52.582Z,14.30
2018-09-04T01:44:20.684Z,15.00
2018-09-04T01:46:48.792Z,14.83
2018-09-04T01:49:16.878Z,13.63
2018-09-04T01:51:45.031Z,16.07
2018-09-04T01:54:13.165Z,16.20
2018-09-04T01:56:41.256Z,14.27
2018-09-04T01:59:09.357Z,15.00
2018-09-04T02:01:37.658Z,15.17
2018-09-04T02:04:05.776Z,16.43
2018-09-04T02:06:33.879Z,16.63
2018-09-04T02:09:02.001Z,14.97
2018-09-04T02:11:30.119Z,16.50
2018-09-04T02:13:58.218Z,15.37
2018-09-04T02:16:26.334Z,16.13
2018-09-04T02:18:54.629Z,15.30
2018-09-04T02:21:22.725Z,15.77
2018-09-04T02:23:50.826Z,14.27
2018-09-04T02:26:18.923Z,14.83
2018-09-04T02:28:47.022Z,15.93
2018-09-04T02:31:15.114Z,15.40
2018-09-04T02:33:43.222Z,14.07
2018-09-04T02:36:11.866Z,14.37
2018-09-04T02:38:39.971Z,14.27
2018-09-04T02:41:08.502Z,14.73
2018-09-04T02:43:36.610Z,14.60
2018-09-04T02:46:04.967Z,15.60
2018-09-04T02:48:33.051Z,14.17
2018-09-04T02:51:01.170Z,14.53
2018-09-04T02:53:29.271Z,14.13
2018-09-04T02:55:57.375Z,14.53
2018-09-04T02:58:25.481Z,14.50
2018-09-04T03:00:53.578Z,15.77
2018-09-04T03:03:21.674Z,14.13
2018-09-04T03:05:49.782Z,14.17
2018-09-04T03:08:17.880Z,13.47
2018-09-04T03:10:45.975Z,17.20
2018-09-04T03:13:14.072Z,16.07
2018-09-04T03:15:42.202Z,16.30
2018-09-04T03:18:10.310Z,14.37
2018-09-04T03:20:38.542Z,13.60
2018-09-04T03:23:06.938Z,15.27
2018-09-04T03:25:34.991Z,14.80
2018-09-04T03:28:03.082Z,15.17
2018-09-04T03:30:31.198Z,15.80
2018-09-04T03:32:59.302Z,15.57
2018-09-04T03:35:27.437Z,14.97
2018-09-04T03:37:55.533Z,15.80
2018-09-04T03:40:23.687Z,14.73
2018-09-04T03:42:51.787Z,14.33
2018-09-04T03:45:19.898Z,14.90
2018-09-04T03:47:47.990Z,14.10
2018-09-04T03:50:16.090Z,14.63
2018-09-04T03:52:44.198Z,13.80
2018-09-04T03:55:12.459Z,14.43
2018-09-04T03:57:40.554Z,13.93
2018-09-04T04:00:08.651Z,14.27
2018-09-04T04:02:36.753Z,13.63
2018-09-04T04:05:04.851Z,15.17
2018-09-04T04:07:33.047Z,15.13
2018-09-04T04:10:01.150Z,16.10
2018-09-04T04:12:29.255Z,14.30
2018-09-04T04:14:57.342Z,16.50
2018-09-04T04:17:25.453Z,14.30
2018-09-04T04:19:53.561Z,14.27
2018-09-04T04:22:21.650Z,14.37
2018-09-04T04:24:49.770Z,15.07
2018-09-04T04:27:17.873Z,15.43
2018-09-04T04:29:45.982Z,13.57
2018-09-04T04:32:14.086Z,14.57
2018-09-04T04:34:42.190Z,13.53
2018-09-04T04:37:10.287Z,14.50
2018-09-04T04:39:38.402Z,14.90
2018-09-04T04:42:06.536Z,15.40
2018-09-04T04:44:34.645Z,13.77
2018-09-04T04:47:02.727Z,15.67
2018-09-04T04:49:30.835Z,16.10
2018-09-04T04:51:58.935Z,19.07
2018-09-04T04:54:27.025Z,17.87
2018-09-04T04:56:55.151Z,20.00
2018-09-04T04:59:23.230Z,18.37
2018-09-04T05:01:51.335Z,17.77
2018-09-04T05:04:19.426Z,18.97
2018-09-04T05:06:47.537Z,17.40
2018-09-04T05:09:15.632Z,18.80
2018-09-04T05:11:43.738Z,20.50
2018-09-04T05:14:11.832Z,18.77
2018-09-04T05:16:39.954Z,19.33
2018-09-04T05:19:08.054Z,19.43
2018-09-04T05:21:36.151Z,19.00
2018-09-04T05:24:04.235Z,19.77
2018-09-04T05:26:32.379Z,19.90
2018-09-04T05:29:00.478Z,21.03
2018-09-04T05:31:30.992Z,21.60
2018-09-04T05:33:59.094Z,21.30
2018-09-04T05:36:27.198Z,22.97
2018-09-04T05:38:55.308Z,21.40
2018-09-04T05:41:23.410Z,23.37
2018-09-04T05:43:56.420Z,22.90
2018-09-04T05:46:31.115Z,21.97
2018-09-04T05:48:59.685Z,22.20
2018-09-04T05:51:27.902Z,23.00
2018-09-04T05:53:56.138Z,23.10
2018-09-04T05:56:24.242Z,22.20
2018-09-04T05:58:52.329Z,23.50
2018-09-04T06:01:20.439Z,24.93
2018-09-04T06:03:48.543Z,22.77
2018-09-04T06:06:16.646Z,20.83
2018-09-04T06:08:44.742Z,19.97
2018-09-04T06:11:12.859Z,21.40
2018-09-04T06:13:41.009Z,22.37
2018-09-04T06:16:09.067Z,22.40
2018-09-04T06:18:37.171Z,22.27
2018-09-04T06:21:05.274Z,23.03
2018-09-04T06:23:33.390Z,21.70
2018-09-04T06:26:01.494Z,20.30
2018-09-04T06:28:29.598Z,21.40
2018-09-04T06:30:57.703Z,22.20
2018-09-04T06:33:25.799Z,23.57
2018-09-04T06:35:53.925Z,22.73
2018-09-04T06:38:22.022Z,24.00
2018-09-04T06:40:50.119Z,21.93
2018-09-04T06:43:18.217Z,22.23
2018-09-04T06:45:46.318Z,21.50
2018-09-04T06:48:14.435Z,20.70
2018-09-04T06:50:42.886Z,21.60
2018-09-04T06:53:11.023Z,22.57
2018-09-04T06:55:39.114Z,20.70
2018-09-04T06:58:07.518Z,22.27
2018-09-04T07:00:35.618Z,21.80
2018-09-04T07:03:03.714Z,19.47
2018-09-04T07:05:31.810Z,20.87
2018-09-04T07:07:59.919Z,21.00
2018-09-04T07:10:28.003Z,20.53
2018-09-04T07:12:56.119Z,20.77
2018-09-04T07:15:24.216Z,20.30
2018-09-04T07:17:52.314Z,20.13
2018-09-04T07:20:20.421Z,20.80
2018-09-04T07:22:48.514Z,18.03
2018-09-04T07:25:16.622Z,19.47
2018-09-04T07:27:44.714Z,18.90
2018-09-04T07:30:12.803Z,19.83
2018-09-04T07:32:40.929Z,19.80
2018-09-04T07:35:09.008Z,21.57
2018-09-04T07:37:37.111Z,19.43
2018-09-04T07:40:05.227Z,20.90
2018-09-04T07:42:33.346Z,21.07
2018-09-04T07:45:01.448Z,20.50
2018-09-04T07:47:29.545Z,19.30
2018-09-04T07:49:57.646Z,16.60
2018-09-04T07:52:25.750Z,17.70
2018-09-04T07:54:53.857Z,20.03
2018-09-04T07:57:21.981Z,18.00
2018-09-04T07:59:50.351Z,15.97
2018-09-04T08:02:18.494Z,16.87
2018-09-04T08:04:46.666Z,20.80
2018-09-04T08:07:14.783Z,19.93
2018-09-04T08:09:42.898Z,21.57
2018-09-04T08:12:11.031Z,18.07
2018-09-04T08:14:39.607Z,23.00
2018-09-04T08:17:07.838Z,17.73
2018-09-04T08:19:35.935Z,18.37
2018-09-04T08:22:04.054Z,18.53
2018-09-04T08:24:32.156Z,20.70
2018-09-04T08:27:00.273Z,19.37
2018-09-04T08:29:28.394Z,21.33
2018-09-04T08:31:56.503Z,24.00
2018-09-04T08:34:24.598Z,24.00
2018-09-04T08:36:52.704Z,22.10
2018-09-04T08:39:20.808Z,19.60
2018-09-04T08:41:48.939Z,19.90
2018-09-04T08:44:17.042Z,18.60
2018-09-04T08:46:45.181Z,21.40
2018-09-04T08:49:13.360Z,22.37
2018-09-04T08:51:41.626Z,20.10
2018-09-04T08:54:09.811Z,23.40
2018-09-04T08:56:37.915Z,21.83
2018-09-04T08:59:06.020Z,19.87
2018-09-04T09:01:34.273Z,21.93
2018-09-04T09:04:02.386Z,22.33
2018-09-04T09:06:30.502Z,23.10
2018-09-04T09:08:58.633Z,21.97
2018-09-04T09:11:26.726Z,25.10
2018-09-04T09:13:54.826Z,24.63
2018-09-04T09:16:22.930Z,19.43
2018-09-04T09:18:51.034Z,22.85
2018-09-04T09:21:21.040Z,20.80
2018-09-04T09:23:49.809Z,20.13
2018-09-04T09:26:20.507Z,20.83
2018-09-04T09:28:49.225Z,20.27
2018-09-04T09:31:18.080Z,20.23
2018-09-04T09:33:47.540Z,18.83
2018-09-04T09:36:15.733Z,19.43
2018-09-04T09:38:43.826Z,21.10
2018-09-04T09:41:11.922Z,17.90
2018-09-04T09:43:40.019Z,18.27
2018-09-04T09:46:08.182Z,18.57
2018-09-04T09:48:40.211Z,18.20
2018-09-04T09:51:08.842Z,13.50
2018-09-04T09:53:37.167Z,13.23
2018-09-04T09:56:05.262Z,13.10
2018-09-04T09:58:33.343Z,14.90
2018-09-04T10:01:07.083Z,13.80
2018-09-04T10:03:40.614Z,15.20
2018-09-04T10:06:08.718Z,14.10
2018-09-04T10:08:37.020Z,13.17
2018-09-04T10:11:05.201Z,14.23
2018-09-04T10:13:33.302Z,13.40
2018-09-04T10:16:01.411Z,14.07
2018-09-04T10:18:29.807Z,13.03
2018-09-04T10:20:57.908Z,10.53
2018-09-04T10:23:26.077Z,10.87
2018-09-04T10:25:54.196Z,9.43
2018-09-04T10:28:22.313Z,9.70
2018-09-04T10:30:50.406Z,12.03
2018-09-04T10:33:18.502Z,11.20
2018-09-04T10:35:46.786Z,12.60
2018-09-04T10:38:14.966Z,12.10
2018-09-04T10:40:44.595Z,12.30
2018-09-04T10:43:12.703Z,10.43
2018-09-04T10:45:46.130Z,9.57
2018-09-04T10:48:15.466Z,9.53
2018-09-04T10:50:43.559Z,9.93
2018-09-04T10:53:11.663Z,9.07
2018-09-04T10:55:39.821Z,8.87
2018-09-04T10:58:07.855Z,9.60
2018-09-04T11:00:35.954Z,9.10
2018-09-04T11:03:04.035Z,8.63
2018-09-04T11:05:32.139Z,9.23
2018-09-04T11:08:00.247Z,10.93
2018-09-04T11:10:28.347Z,8.83
2018-09-04T11:12:56.442Z,9.20
2018-09-04T11:15:24.643Z,8.20
2018-09-04T11:17:52.742Z,9.10
2018-09-04T11:20:20.853Z,8.90
2018-09-04T11:22:48.951Z,9.90
2018-09-04T11:25:17.103Z,8.40
2018-09-04T11:27:45.198Z,9.97
2018-09-04T11:30:13.789Z,10.27
2018-09-04T11:32:42.559Z,8.23
2018-09-04T11:35:11.150Z,8.83
2018-09-04T11:37:39.297Z,7.20
2018-09-04T11:40:08.278Z,7.27
2018-09-04T11:42:36.370Z,6.13
2018-09-04T11:45:05.350Z,7.43
2018-09-04T11:47:33.470Z,9.20
2018-09-04T11:50:01.573Z,7.80
2018-09-04T11:52:29.719Z,8.67
2018-09-04T11:54:57.760Z,7.17
2018-09-04T11:57:25.850Z,7.10
2018-09-04T11:59:53.955Z,6.97
2018-09-04T12:02:31.315Z,7.00
2018-09-04T12:04:59.418Z,8.83
2018-09-04T12:07:27.514Z,7.50
2018-09-04T12:09:55.629Z,8.90
2018-09-04T12:12:29.035Z,7.20
2018-09-04T12:14:57.082Z,8.37
2018-09-04T12:17:25.343Z,7.00
2018-09-04T12:21:05.104Z,7.10
2018-09-04T12:23:33.091Z,8.20
2018-09-04T12:26:02.476Z,7.67
2018-09-04T12:28:30.594Z,6.70
2018-09-04T12:30:59.238Z,6.70
2018-09-04T12:33:27.594Z,7.10
2018-09-04T12:35:55.691Z,7.33
2018-09-04T12:38:25.287Z,6.90
2018-09-04T12:40:53.386Z,6.67
2018-09-04T12:43:21.467Z,6.50
2018-09-04T12:45:50.424Z,6.60
2018-09-04T12:48:23.184Z,6.60
2018-09-04T12:50:51.983Z,7.33
2018-09-04T12:53:20.357Z,7.40
2018-09-04T12:55:48.438Z,6.73
2018-09-04T12:58:16.527Z,6.80
2018-09-04T13:00:45.354Z,6.20
2018-09-04T13:03:15.027Z,6.67
2018-09-04T13:05:43.141Z,6.63
2018-09-04T13:08:11.642Z,6.63
2018-09-04T13:10:39.741Z,6.17
2018-09-04T13:13:07.998Z,5.90
2018-09-04T13:15:36.114Z,6.00
2018-09-04T13:18:04.339Z,6.03
2018-09-04T13:20:32.520Z,6.77
2018-09-04T13:23:00.789Z,7.33
2018-09-04T13:25:28.902Z,6.47
2018-09-04T13:27:56.990Z,6.50
2018-09-04T13:30:25.087Z,6.17
2018-09-04T13:32:53.182Z,6.10
2018-09-04T13:35:21.299Z,6.47
2018-09-04T13:37:49.383Z,5.70
2018-09-04T13:40:17.499Z,6.07
2018-09-04T13:42:45.603Z,6.80
2018-09-04T13:45:13.686Z,7.00
2018-09-04T13:47:41.784Z,6.33
2018-09-04T13:50:11.714Z,6.30
2018-09-04T13:52:39.823Z,6.17
2018-09-04T13:55:07.954Z,6.20
2018-09-04T13:57:36.048Z,6.13
2018-09-04T14:00:04.442Z,6.87
2018-09-04T14:02:32.570Z,6.20
2018-09-04T14:05:00.655Z,7.00
2018-09-04T14:07:28.967Z,6.57
2018-09-04T14:09:57.068Z,6.70
2018-09-04T14:12:25.306Z,7.27
2018-09-04T14:14:56.145Z,7.40
2018-09-04T14:17:24.519Z,8.17
2018-09-04T14:19:58.063Z,6.60
2018-09-04T14:22:31.495Z,6.53
2018-09-04T14:24:59.558Z,7.00
2018-09-04T14:27:27.650Z,8.97
2018-09-04T14:30:15.543Z,8.47
2018-09-04T14:32:23.847Z,7.57
2018-09-04T14:34:51.951Z,9.27
2018-09-04T14:37:20.073Z,8.90
2018-09-04T14:39:55.588Z,8.10
2018-09-04T14:42:16.813Z,8.70
2018-09-04T14:44:45.137Z,8.70
2018-09-04T14:47:13.497Z,8.87
2018-09-04T14:49:41.845Z,8.70
2018-09-04T14:52:10.471Z,9.43
2018-09-04T14:54:38.694Z,9.17
2018-09-04T14:57:07.361Z,9.47
2018-09-04T14:59:36.503Z,9.03
2018-09-04T15:02:04.635Z,8.40
2018-09-04T15:04:32.698Z,8.70
2018-09-04T15:07:00.966Z,8.83
2018-09-04T15:09:29.035Z,9.90
2018-09-04T15:11:57.952Z,9.57
2018-09-04T15:14:26.070Z,8.17
2018-09-04T15:16:55.677Z,9.53
2018-09-04T15:19:24.462Z,10.57
2018-09-04T15:21:52.569Z,9.47
2018-09-04T15:24:20.736Z,9.23
2018-09-04T15:26:49.030Z,9.60
2018-09-04T15:29:18.106Z,9.23
2018-09-04T15:31:46.368Z,8.93
2018-09-04T15:34:14.478Z,9.00
2018-09-04T15:36:42.616Z,9.40
2018-09-04T15:39:10.754Z,8.67
2018-09-04T15:41:38.915Z,8.67
2018-09-04T15:44:07.026Z,9.50
2018-09-04T15:46:35.235Z,8.90
2018-09-04T15:49:08.682Z,10.00
2018-09-04T15:51:37.938Z,9.57
2018-09-04T15:54:13.582Z,9.37
2018-09-04T15:56:49.025Z,8.50
2018-09-04T15:59:21.908Z,6.73
2018-09-04T16:01:49.999Z,7.97
2018-09-04T16:04:18.286Z,7.70
2018-09-04T16:06:46.430Z,7.27
2018-09-04T16:09:14.558Z,7.17
2018-09-04T16:11:42.683Z,7.77
2018-09-04T16:14:12.551Z,7.50
2018-09-04T16:16:40.648Z,6.97
2018-09-04T16:19:08.746Z,7.50
2018-09-04T16:21:37.038Z,7.37
2018-09-04T16:24:05.156Z,8.07
2018-09-04T16:26:33.411Z,7.30
2018-09-04T16:29:01.915Z,7.27
2018-09-04T16:31:30.102Z,7.47
2018-09-04T16:33:58.191Z,7.60
2018-09-04T16:36:26.519Z,7.77
2018-09-04T16:38:54.607Z,7.57
2018-09-04T16:41:22.772Z,7.03
2018-09-04T16:43:50.847Z,8.00
2018-09-04T16:46:19.286Z,7.70
2018-09-04T16:48:47.706Z,7.63
2018-09-04T16:51:15.786Z,7.13
2018-09-04T16:53:43.882Z,8.30
2018-09-04T16:56:11.991Z,8.00
2018-09-04T16:58:40.102Z,8.60
2018-09-04T17:01:08.182Z,8.10
2018-09-04T17:03:36.283Z,8.10
2018-09-04T17:06:04.391Z,7.47
2018-09-04T17:08:32.466Z,7.67
2018-09-04T17:11:00.576Z,8.27
2018-09-04T17:13:28.664Z,8.17
2018-09-04T17:15:56.771Z,8.20
2018-09-04T17:18:24.895Z,8.50
2018-09-04T17:20:52.957Z,8.60
2018-09-04T17:23:21.050Z,7.60
2018-09-04T17:25:49.168Z,8.43
2018-09-04T17:28:17.323Z,8.00
2018-09-04T17:30:45.417Z,7.77
2018-09-04T17:33:13.499Z,7.50
2018-09-04T17:35:41.610Z,8.10
2018-09-04T17:38:09.714Z,7.80
2018-09-04T17:40:37.799Z,7.60
2018-09-04T17:43:05.999Z,8.10
2018-09-04T17:45:34.093Z,8.10
2018-09-04T17:48:02.336Z,8.17
2018-09-04T17:50:30.362Z,7.70
2018-09-04T17:52:58.622Z,7.80
2018-09-04T17:55:26.721Z,8.33
2018-09-04T17:57:54.810Z,7.97
2018-09-04T18:00:22.898Z,8.30
2018-09-04T18:02:50.996Z,7.87
2018-09-04T18:05:19.087Z,7.60
2018-09-04T18:07:47.186Z,7.93
2018-09-04T18:10:15.286Z,7.83
2018-09-04T18:12:43.367Z,8.10
2018-09-04T18:15:11.456Z,7.10
2018-09-04T18:17:39.550Z,7.47
2018-09-04T18:20:07.650Z,7.43
2018-09-04T18:22:35.748Z,8.47
2018-09-04T18:25:03.836Z,8.40
2018-09-04T18:27:31.923Z,7.23
2018-09-04T18:30:00.011Z,6.87
2018-09-04T18:32:28.106Z,8.60
2018-09-04T18:34:56.236Z,8.50
2018-09-04T18:37:24.326Z,7.77
2018-09-04T18:39:52.419Z,7.73
2018-09-04T18:42:20.506Z,8.10
2018-09-04T18:44:48.604Z,8.30
2018-09-04T18:47:16.686Z,8.50
2018-09-04T18:49:44.962Z,8.47
2018-09-04T18:52:13.053Z,8.43
2018-09-04T18:54:41.154Z,8.20
2018-09-04T18:57:09.245Z,8.50
2018-09-04T18:59:37.390Z,8.30
2018-09-04T19:02:05.436Z,7.80
2018-09-04T19:04:33.546Z,7.93
2018-09-04T19:07:01.841Z,8.33
2018-09-04T19:09:29.970Z,8.20
2018-09-04T19:11:58.042Z,7.87
2018-09-04T19:14:26.404Z,8.20
2018-09-04T19:16:55.027Z,8.13
2018-09-04T19:19:23.149Z,7.23
2018-09-04T19:21:51.242Z,9.30
2018-09-04T19:24:19.331Z,8.20
2018-09-04T19:26:47.434Z,8.10
2018-09-04T19:29:15.518Z,8.70
2018-09-04T19:31:43.740Z,8.30
2018-09-04T19:34:11.820Z,8.80
2018-09-04T19:36:39.914Z,9.17
2018-09-04T19:39:08.951Z,8.67
2018-09-04T19:41:37.433Z,8.63
2018-09-04T19:44:05.538Z,7.77
2018-09-04T19:46:33.966Z,7.70
2018-09-04T19:49:02.088Z,9.07
2018-09-04T19:51:30.191Z,8.87
2018-09-04T19:53:58.447Z,9.70
2018-09-04T19:56:26.555Z,9.57
2018-09-04T19:58:54.650Z,9.33
2018-09-04T20:01:22.770Z,9.00
2018-09-04T20:03:50.855Z,8.67
2018-09-04T20:06:18.954Z,8.90
2018-09-04T20:08:47.059Z,9.00
2018-09-04T20:11:15.286Z,9.43
2018-09-04T20:13:43.384Z,8.87
2018-09-04T20:16:11.480Z,8.93
2018-09-04T20:18:39.584Z,7.90
2018-09-04T20:21:07.706Z,9.73
2018-09-04T20:23:35.814Z,9.70
2018-09-04T20:26:03.910Z,9.10
2018-09-04T20:28:32.102Z,9.93
2018-09-04T20:31:00.215Z,10.00
2018-09-04T20:33:28.311Z,10.67
2018-09-04T20:35:56.478Z,8.67
2018-09-04T20:38:24.510Z,9.90
2018-09-04T20:40:52.661Z,8.97
2018-09-04T20:43:20.822Z,8.53
2018-09-04T20:45:48.935Z,9.57
2018-09-04T20:48:17.036Z,9.50
2018-09-04T20:50:45.773Z,9.63
2018-09-04T20:53:13.874Z,9.30
2018-09-04T20:55:41.962Z,8.73
2018-09-04T20:58:21.546Z,9.53
2018-09-04T21:01:01.007Z,9.10
2018-09-04T21:03:40.464Z,8.10
2018-09-04T21:06:19.906Z,8.00
2018-09-04T21:09:00.638Z,8.85
2018-09-04T21:11:28.910Z,8.80
2018-09-04T21:13:56.991Z,9.27
2018-09-04T21:16:25.097Z,9.20
2018-09-04T21:18:53.323Z,8.37
2018-09-04T21:21:21.694Z,8.53
2018-09-04T21:23:49.786Z,9.60
2018-09-04T21:26:17.902Z,9.30
2018-09-04T21:28:46.014Z,8.37
2018-09-04T21:31:14.110Z,8.23
2018-09-04T21:33:42.199Z,8.70
2018-09-04T21:36:10.291Z,9.00
2018-09-04T21:38:38.382Z,9.00
2018-09-04T21:41:06.467Z,8.40
2018-09-04T21:43:34.579Z,8.10
2018-09-04T21:46:02.667Z,7.87
2018-09-04T21:48:30.771Z,8.60
2018-09-04T21:50:58.847Z,8.60
2018-09-04T21:53:26.938Z,8.60
2018-09-04T21:55:55.035Z,9.13
2018-09-04T21:58:23.134Z,8.80
2018-09-04T22:00:51.222Z,9.50
2018-09-04T22:03:19.309Z,8.75
2018-09-04T22:05:47.413Z,8.97
2018-09-04T22:08:15.524Z,8.97
2018-09-04T22:10:43.802Z,8.47
2018-09-04T22:13:11.974Z,9.20
2018-09-04T22:15:39.973Z,8.90
2018-09-04T22:18:08.076Z,9.00
2018-09-04T22:20:36.210Z,9.83
2018-09-04T22:23:04.302Z,9.87
2018-09-04T22:25:32.394Z,9.20
2018-09-04T22:28:00.491Z,8.63
2018-09-04T22:30:28.573Z,9.23
2018-09-04T22:32:57.186Z,10.57
2018-09-04T22:35:25.270Z,9.53
2018-09-04T22:37:53.365Z,9.53
2018-09-04T22:40:21.467Z,9.10
2018-09-04T22:42:49.567Z,9.23
2018-09-04T22:45:17.650Z,9.40
2018-09-04T22:48:14.911Z,9.60
2018-09-04T22:50:48.334Z,9.80
2018-09-04T22:53:16.433Z,9.83
2018-09-04T22:55:44.523Z,9.43
2018-09-04T22:58:12.607Z,9.83
2018-09-04T23:00:40.687Z,9.17
2018-09-04T23:03:08.783Z,9.87
2018-09-04T23:05:36.862Z,10.00
2018-09-04T23:08:05.207Z,10.00
2018-09-04T23:10:33.310Z,9.63
2018-09-04T23:13:01.410Z,10.00
2018-09-04T23:15:29.502Z,10.30
2018-09-04T23:17:57.603Z,10.60
2018-09-04T23:20:25.727Z,11.50
2018-09-04T23:22:53.818Z,9.83
2018-09-04T23:25:21.903Z,8.83
2018-09-04T23:27:50.006Z,9.73
2018-09-04T23:30:18.098Z,9.73
2018-09-04T23:32:46.612Z,10.30
2018-09-04T23:35:14.706Z,9.00
2018-09-04T23:37:42.797Z,10.13
2018-09-04T23:40:10.894Z,11.23
2018-09-04T23:42:38.978Z,10.47
2018-09-04T23:45:07.090Z,10.43
2018-09-04T23:47:35.178Z,10.80
2018-09-04T23:50:03.277Z,10.70
2018-09-04T23:52:31.356Z,11.13
2018-09-04T23:54:59.455Z,10.60
2018-09-04T23:57:27.544Z,11.17
2018-09-04T23:59:55.710Z,10.20
